sensor_id;sensor_type;location;lat;lon;timestamp;P1;durP1;ratioP1;P2;durP2;ratioP2
45694;SDS011;31408;45.468;9.124;2023-02-03T00:01:47;21.20;;;8.65;;
45694;SDS011;31408;45.468;9.124;2023-02-03T00:04:12;23.38;;;9.52;;
45694;SDS011;31408;45.468;9.124;2023-02-03T00:06:38;20.33;;;9.23;;
45694;SDS011;31408;45.468;9.124;2023-02-03T00:09:04;24.75;;;10.30;;
45694;SDS011;31408;45.468;9.124;2023-02-03T00:11:29;24.35;;;9.85;;
45694;SDS011;31408;45.468;9.124;2023-02-03T00:13:55;23.77;;;9.80;;
45694;SDS011;31408;45.468;9.124;2023-02-03T00:16:21;23.88;;;9.43;;
45694;SDS011;31408;45.468;9.124;2023-02-03T00:18:46;25.33;;;9.75;;
45694;SDS011;31408;45.468;9.124;2023-02-03T00:21:12;25.23;;;9.35;;
45694;SDS011;31408;45.468;9.124;2023-02-03T00:23:39;23.70;;;11.40;;
45694;SDS011;31408;45.468;9.124;2023-02-03T00:26:13;24.38;;;10.55;;
45694;SDS011;31408;45.468;9.124;2023-02-03T00:28:41;24.00;;;10.00;;
45694;SDS011;31408;45.468;9.124;2023-02-03T00:31:14;30.75;;;13.25;;
45694;SDS011;31408;45.468;9.124;2023-02-03T00:33:40;24.70;;;11.07;;
45694;SDS011;31408;45.468;9.124;2023-02-03T00:36:06;25.27;;;10.25;;
45694;SDS011;31408;45.468;9.124;2023-02-03T00:38:32;27.35;;;9.60;;
45694;SDS011;31408;45.468;9.124;2023-02-03T00:40:57;25.65;;;9.98;;
45694;SDS011;31408;45.468;9.124;2023-02-03T00:43:23;23.27;;;10.38;;
45694;SDS011;31408;45.468;9.124;2023-02-03T00:45:48;21.90;;;9.55;;
45694;SDS011;31408;45.468;9.124;2023-02-03T00:48:14;29.23;;;10.52;;
45694;SDS011;31408;45.468;9.124;2023-02-03T00:50:39;33.83;;;11.60;;
45694;SDS011;31408;45.468;9.124;2023-02-03T00:53:05;28.25;;;11.18;;
45694;SDS011;31408;45.468;9.124;2023-02-03T00:55:30;24.33;;;11.82;;
45694;SDS011;31408;45.468;9.124;2023-02-03T00:57:55;29.77;;;10.70;;
45694;SDS011;31408;45.468;9.124;2023-02-03T01:00:21;29.45;;;11.88;;
45694;SDS011;31408;45.468;9.124;2023-02-03T01:02:47;24.92;;;11.38;;
45694;SDS011;31408;45.468;9.124;2023-02-03T01:05:12;24.35;;;10.55;;
45694;SDS011;31408;45.468;9.124;2023-02-03T01:07:38;23.25;;;10.45;;
45694;SDS011;31408;45.468;9.124;2023-02-03T01:10:03;24.13;;;10.55;;
45694;SDS011;31408;45.468;9.124;2023-02-03T01:12:31;29.90;;;10.82;;
45694;SDS011;31408;45.468;9.124;2023-02-03T01:14:57;21.42;;;10.32;;
45694;SDS011;31408;45.468;9.124;2023-02-03T01:17:28;27.17;;;11.75;;
45694;SDS011;31408;45.468;9.124;2023-02-03T01:19:54;30.02;;;10.85;;
45694;SDS011;31408;45.468;9.124;2023-02-03T01:22:19;23.23;;;10.25;;
45694;SDS011;31408;45.468;9.124;2023-02-03T01:24:45;26.77;;;10.43;;
45694;SDS011;31408;45.468;9.124;2023-02-03T01:27:10;26.33;;;10.32;;
45694;SDS011;31408;45.468;9.124;2023-02-03T01:29:36;28.90;;;11.73;;
45694;SDS011;31408;45.468;9.124;2023-02-03T01:32:01;22.73;;;10.40;;
45694;SDS011;31408;45.468;9.124;2023-02-03T01:34:27;26.08;;;9.57;;
45694;SDS011;31408;45.468;9.124;2023-02-03T01:36:52;23.35;;;9.90;;
45694;SDS011;31408;45.468;9.124;2023-02-03T01:39:18;29.70;;;11.30;;
45694;SDS011;31408;45.468;9.124;2023-02-03T01:41:44;24.38;;;10.57;;
45694;SDS011;31408;45.468;9.124;2023-02-03T01:52:46;21.50;;;8.63;;
45694;SDS011;31408;45.468;9.124;2023-02-03T01:55:16;26.42;;;10.55;;
45694;SDS011;31408;45.468;9.124;2023-02-03T01:57:46;28.35;;;10.45;;
45694;SDS011;31408;45.468;9.124;2023-02-03T02:00:16;20.17;;;8.55;;
45694;SDS011;31408;45.468;9.124;2023-02-03T02:02:42;27.45;;;10.57;;
45694;SDS011;31408;45.468;9.124;2023-02-03T02:07:56;26.02;;;10.57;;
45694;SDS011;31408;45.468;9.124;2023-02-03T02:10:22;23.85;;;9.55;;
45694;SDS011;31408;45.468;9.124;2023-02-03T02:12:48;23.02;;;10.18;;
45694;SDS011;31408;45.468;9.124;2023-02-03T02:15:14;27.40;;;11.48;;
45694;SDS011;31408;45.468;9.124;2023-02-03T02:45:21;30.63;;;10.43;;
45694;SDS011;31408;45.468;9.124;2023-02-03T02:47:52;27.27;;;9.63;;
45694;SDS011;31408;45.468;9.124;2023-02-03T02:50:25;26.63;;;9.82;;
45694;SDS011;31408;45.468;9.124;2023-02-03T02:52:52;17.70;;;9.65;;
45694;SDS011;31408;45.468;9.124;2023-02-03T02:55:20;21.00;;;9.85;;
45694;SDS011;31408;45.468;9.124;2023-02-03T02:57:50;30.05;;;10.75;;
45694;SDS011;31408;45.468;9.124;2023-02-03T03:00:21;23.60;;;9.65;;
45694;SDS011;31408;45.468;9.124;2023-02-03T03:02:48;23.35;;;9.63;;
45694;SDS011;31408;45.468;9.124;2023-02-03T03:05:13;23.67;;;10.65;;
45694;SDS011;31408;45.468;9.124;2023-02-03T03:07:53;22.85;;;9.45;;
45694;SDS011;31408;45.468;9.124;2023-02-03T03:10:22;22.23;;;9.55;;
45694;SDS011;31408;45.468;9.124;2023-02-03T03:12:56;21.88;;;9.07;;
45694;SDS011;31408;45.468;9.124;2023-02-03T03:15:26;23.65;;;9.85;;
45694;SDS011;31408;45.468;9.124;2023-02-03T03:18:35;23.33;;;9.05;;
45694;SDS011;31408;45.468;9.124;2023-02-03T03:20:49;23.70;;;9.45;;
45694;SDS011;31408;45.468;9.124;2023-02-03T03:23:20;20.95;;;10.45;;
45694;SDS011;31408;45.468;9.124;2023-02-03T03:25:56;25.77;;;10.00;;
45694;SDS011;31408;45.468;9.124;2023-02-03T03:28:37;24.38;;;10.27;;
45694;SDS011;31408;45.468;9.124;2023-02-03T03:31:07;22.08;;;9.05;;
45694;SDS011;31408;45.468;9.124;2023-02-03T03:33:33;19.73;;;9.45;;
45694;SDS011;31408;45.468;9.124;2023-02-03T03:36:04;22.90;;;9.48;;
45694;SDS011;31408;45.468;9.124;2023-02-03T03:38:36;21.95;;;9.95;;
45694;SDS011;31408;45.468;9.124;2023-02-03T03:41:06;19.98;;;9.35;;
45694;SDS011;31408;45.468;9.124;2023-02-03T03:43:38;24.58;;;10.15;;
45694;SDS011;31408;45.468;9.124;2023-02-03T03:46:13;21.15;;;9.70;;
45694;SDS011;31408;45.468;9.124;2023-02-03T03:48:57;22.17;;;10.15;;
45694;SDS011;31408;45.468;9.124;2023-02-03T03:54:06;28.98;;;9.40;;
45694;SDS011;31408;45.468;9.124;2023-02-03T03:56:35;26.40;;;10.90;;
45694;SDS011;31408;45.468;9.124;2023-02-03T03:59:20;21.40;;;9.10;;
45694;SDS011;31408;45.468;9.124;2023-02-03T04:01:47;23.25;;;9.77;;
45694;SDS011;31408;45.468;9.124;2023-02-03T04:04:13;21.35;;;9.85;;
45694;SDS011;31408;45.468;9.124;2023-02-03T04:06:40;23.92;;;10.95;;
45694;SDS011;31408;45.468;9.124;2023-02-03T04:09:05;24.42;;;10.18;;
45694;SDS011;31408;45.468;9.124;2023-02-03T04:11:31;20.60;;;9.35;;
45694;SDS011;31408;45.468;9.124;2023-02-03T04:14:15;22.48;;;9.57;;
45694;SDS011;31408;45.468;9.124;2023-02-03T04:16:40;23.80;;;9.45;;
45694;SDS011;31408;45.468;9.124;2023-02-03T04:19:06;25.85;;;10.82;;
45694;SDS011;31408;45.468;9.124;2023-02-03T04:21:31;24.08;;;9.85;;
45694;SDS011;31408;45.468;9.124;2023-02-03T04:23:57;24.63;;;11.18;;
45694;SDS011;31408;45.468;9.124;2023-02-03T04:26:22;24.27;;;10.73;;
45694;SDS011;31408;45.468;9.124;2023-02-03T04:28:48;25.15;;;9.60;;
45694;SDS011;31408;45.468;9.124;2023-02-03T04:31:13;22.58;;;9.50;;
45694;SDS011;31408;45.468;9.124;2023-02-03T04:33:39;22.48;;;9.90;;
45694;SDS011;31408;45.468;9.124;2023-02-03T04:36:04;23.23;;;10.45;;
45694;SDS011;31408;45.468;9.124;2023-02-03T04:38:30;25.52;;;10.68;;
45694;SDS011;31408;45.468;9.124;2023-02-03T04:40:57;20.67;;;10.05;;
45694;SDS011;31408;45.468;9.124;2023-02-03T04:43:22;26.75;;;10.27;;
45694;SDS011;31408;45.468;9.124;2023-02-03T04:45:48;24.30;;;10.00;;
45694;SDS011;31408;45.468;9.124;2023-02-03T04:48:13;19.83;;;9.55;;
45694;SDS011;31408;45.468;9.124;2023-02-03T04:50:39;22.15;;;9.80;;
45694;SDS011;31408;45.468;9.124;2023-02-03T04:53:04;25.70;;;9.65;;
45694;SDS011;31408;45.468;9.124;2023-02-03T04:55:29;22.52;;;9.38;;
45694;SDS011;31408;45.468;9.124;2023-02-03T04:57:55;27.35;;;10.18;;
45694;SDS011;31408;45.468;9.124;2023-02-03T05:00:25;20.08;;;8.65;;
45694;SDS011;31408;45.468;9.124;2023-02-03T05:02:53;25.05;;;9.25;;
45694;SDS011;31408;45.468;9.124;2023-02-03T05:05:19;22.08;;;10.20;;
45694;SDS011;31408;45.468;9.124;2023-02-03T05:07:45;24.33;;;10.80;;
45694;SDS011;31408;45.468;9.124;2023-02-03T05:10:10;21.83;;;9.05;;
45694;SDS011;31408;45.468;9.124;2023-02-03T05:12:36;26.35;;;10.98;;
45694;SDS011;31408;45.468;9.124;2023-02-03T05:15:01;21.10;;;8.43;;
45694;SDS011;31408;45.468;9.124;2023-02-03T05:17:27;16.90;;;8.55;;
45694;SDS011;31408;45.468;9.124;2023-02-03T05:19:52;24.40;;;9.55;;
45694;SDS011;31408;45.468;9.124;2023-02-03T05:22:18;24.00;;;9.88;;
45694;SDS011;31408;45.468;9.124;2023-02-03T05:24:43;27.52;;;10.85;;
45694;SDS011;31408;45.468;9.124;2023-02-03T05:27:09;22.10;;;10.05;;
45694;SDS011;31408;45.468;9.124;2023-02-03T05:29:34;25.67;;;9.93;;
45694;SDS011;31408;45.468;9.124;2023-02-03T05:32:00;23.90;;;10.93;;
45694;SDS011;31408;45.468;9.124;2023-02-03T05:34:25;23.80;;;9.43;;
45694;SDS011;31408;45.468;9.124;2023-02-03T05:36:51;22.50;;;9.73;;
45694;SDS011;31408;45.468;9.124;2023-02-03T05:39:16;20.65;;;10.23;;
45694;SDS011;31408;45.468;9.124;2023-02-03T05:41:41;23.13;;;9.60;;
45694;SDS011;31408;45.468;9.124;2023-02-03T05:44:23;21.20;;;9.05;;
45694;SDS011;31408;45.468;9.124;2023-02-03T05:46:51;20.60;;;9.35;;
45694;SDS011;31408;45.468;9.124;2023-02-03T05:49:17;22.38;;;9.75;;
45694;SDS011;31408;45.468;9.124;2023-02-03T05:51:44;24.23;;;10.15;;
45694;SDS011;31408;45.468;9.124;2023-02-03T05:54:10;18.25;;;9.10;;
45694;SDS011;31408;45.468;9.124;2023-02-03T05:56:36;24.42;;;10.10;;
45694;SDS011;31408;45.468;9.124;2023-02-03T05:59:02;29.60;;;9.88;;
45694;SDS011;31408;45.468;9.124;2023-02-03T06:01:28;22.73;;;8.93;;
45694;SDS011;31408;45.468;9.124;2023-02-03T06:03:53;26.75;;;10.90;;
45694;SDS011;31408;45.468;9.124;2023-02-03T06:06:19;23.00;;;10.68;;
45694;SDS011;31408;45.468;9.124;2023-02-03T06:08:44;22.88;;;9.38;;
45694;SDS011;31408;45.468;9.124;2023-02-03T06:11:10;20.00;;;9.30;;
45694;SDS011;31408;45.468;9.124;2023-02-03T06:13:36;23.45;;;9.85;;
45694;SDS011;31408;45.468;9.124;2023-02-03T06:16:02;24.27;;;9.90;;
45694;SDS011;31408;45.468;9.124;2023-02-03T06:18:28;18.10;;;8.77;;
45694;SDS011;31408;45.468;9.124;2023-02-03T06:20:54;24.23;;;9.40;;
45694;SDS011;31408;45.468;9.124;2023-02-03T06:23:19;20.50;;;9.07;;
45694;SDS011;31408;45.468;9.124;2023-02-03T06:25:48;21.55;;;8.98;;
45694;SDS011;31408;45.468;9.124;2023-02-03T06:28:14;23.60;;;11.13;;
45694;SDS011;31408;45.468;9.124;2023-02-03T06:30:40;25.83;;;9.40;;
45694;SDS011;31408;45.468;9.124;2023-02-03T06:33:05;18.77;;;8.07;;
45694;SDS011;31408;45.468;9.124;2023-02-03T06:35:31;22.75;;;10.15;;
45694;SDS011;31408;45.468;9.124;2023-02-03T06:37:56;23.25;;;9.25;;
45694;SDS011;31408;45.468;9.124;2023-02-03T06:40:22;16.75;;;7.95;;
45694;SDS011;31408;45.468;9.124;2023-02-03T06:42:50;26.88;;;9.25;;
45694;SDS011;31408;45.468;9.124;2023-02-03T06:45:16;15.30;;;9.18;;
45694;SDS011;31408;45.468;9.124;2023-02-03T06:47:42;22.33;;;8.65;;
45694;SDS011;31408;45.468;9.124;2023-02-03T06:50:09;23.30;;;9.90;;
45694;SDS011;31408;45.468;9.124;2023-02-03T06:52:35;20.67;;;8.18;;
45694;SDS011;31408;45.468;9.124;2023-02-03T06:55:01;23.65;;;8.80;;
45694;SDS011;31408;45.468;9.124;2023-02-03T06:57:28;20.17;;;8.25;;
45694;SDS011;31408;45.468;9.124;2023-02-03T06:59:53;22.70;;;8.55;;
45694;SDS011;31408;45.468;9.124;2023-02-03T07:02:19;19.85;;;9.07;;
45694;SDS011;31408;45.468;9.124;2023-02-03T07:04:44;24.05;;;9.15;;
45694;SDS011;31408;45.468;9.124;2023-02-03T07:07:10;18.35;;;9.02;;
45694;SDS011;31408;45.468;9.124;2023-02-03T07:09:37;20.23;;;8.02;;
45694;SDS011;31408;45.468;9.124;2023-02-03T07:12:03;21.85;;;9.00;;
45694;SDS011;31408;45.468;9.124;2023-02-03T07:14:29;22.42;;;10.48;;
45694;SDS011;31408;45.468;9.124;2023-02-03T07:16:55;22.15;;;9.95;;
45694;SDS011;31408;45.468;9.124;2023-02-03T07:19:20;21.00;;;8.32;;
45694;SDS011;31408;45.468;9.124;2023-02-03T07:21:46;18.25;;;9.18;;
45694;SDS011;31408;45.468;9.124;2023-02-03T07:24:11;22.80;;;9.82;;
45694;SDS011;31408;45.468;9.124;2023-02-03T07:26:37;19.95;;;9.90;;
45694;SDS011;31408;45.468;9.124;2023-02-03T07:29:03;21.02;;;9.23;;
45694;SDS011;31408;45.468;9.124;2023-02-03T07:31:29;25.15;;;9.38;;
45694;SDS011;31408;45.468;9.124;2023-02-03T07:33:55;21.23;;;9.10;;
45694;SDS011;31408;45.468;9.124;2023-02-03T07:36:20;19.98;;;8.10;;
45694;SDS011;31408;45.468;9.124;2023-02-03T07:38:46;19.45;;;9.05;;
45694;SDS011;31408;45.468;9.124;2023-02-03T07:41:11;24.73;;;10.18;;
45694;SDS011;31408;45.468;9.124;2023-02-03T07:43:37;22.63;;;10.18;;
45694;SDS011;31408;45.468;9.124;2023-02-03T07:46:02;20.85;;;8.57;;
45694;SDS011;31408;45.468;9.124;2023-02-03T07:48:28;23.38;;;8.52;;
45694;SDS011;31408;45.468;9.124;2023-02-03T07:50:53;13.63;;;6.75;;
45694;SDS011;31408;45.468;9.124;2023-02-03T07:53:19;20.58;;;8.20;;
45694;SDS011;31408;45.468;9.124;2023-02-03T07:55:44;14.65;;;7.00;;
45694;SDS011;31408;45.468;9.124;2023-02-03T07:58:10;20.83;;;8.32;;
45694;SDS011;31408;45.468;9.124;2023-02-03T08:00:35;21.10;;;7.88;;
45694;SDS011;31408;45.468;9.124;2023-02-03T08:03:01;23.55;;;9.55;;
45694;SDS011;31408;45.468;9.124;2023-02-03T08:05:27;33.85;;;9.35;;
45694;SDS011;31408;45.468;9.124;2023-02-03T08:07:54;20.40;;;8.45;;
45694;SDS011;31408;45.468;9.124;2023-02-03T08:10:20;18.42;;;7.57;;
45694;SDS011;31408;45.468;9.124;2023-02-03T08:12:46;16.42;;;8.27;;
45694;SDS011;31408;45.468;9.124;2023-02-03T08:15:12;17.15;;;7.70;;
45694;SDS011;31408;45.468;9.124;2023-02-03T08:17:38;24.52;;;8.75;;
45694;SDS011;31408;45.468;9.124;2023-02-03T08:20:06;26.40;;;10.02;;
45694;SDS011;31408;45.468;9.124;2023-02-03T08:22:35;21.13;;;9.70;;
45694;SDS011;31408;45.468;9.124;2023-02-03T08:25:00;21.50;;;8.20;;
45694;SDS011;31408;45.468;9.124;2023-02-03T08:27:25;20.52;;;8.35;;
45694;SDS011;31408;45.468;9.124;2023-02-03T08:29:51;19.45;;;7.93;;
45694;SDS011;31408;45.468;9.124;2023-02-03T08:32:18;21.98;;;9.52;;
45694;SDS011;31408;45.468;9.124;2023-02-03T08:34:45;18.88;;;9.13;;
45694;SDS011;31408;45.468;9.124;2023-02-03T08:37:12;22.90;;;10.13;;
45694;SDS011;31408;45.468;9.124;2023-02-03T08:39:39;23.80;;;8.70;;
45694;SDS011;31408;45.468;9.124;2023-02-03T08:42:05;19.77;;;9.05;;
45694;SDS011;31408;45.468;9.124;2023-02-03T08:44:31;21.50;;;9.68;;
45694;SDS011;31408;45.468;9.124;2023-02-03T08:46:57;22.10;;;9.38;;
45694;SDS011;31408;45.468;9.124;2023-02-03T08:49:24;23.17;;;9.98;;
45694;SDS011;31408;45.468;9.124;2023-02-03T08:51:50;21.15;;;8.80;;
45694;SDS011;31408;45.468;9.124;2023-02-03T08:54:16;20.20;;;8.05;;
45694;SDS011;31408;45.468;9.124;2023-02-03T08:56:42;17.33;;;8.20;;
45694;SDS011;31408;45.468;9.124;2023-02-03T08:59:08;22.58;;;8.93;;
45694;SDS011;31408;45.468;9.124;2023-02-03T09:01:33;19.25;;;8.40;;
45694;SDS011;31408;45.468;9.124;2023-02-03T09:03:59;16.40;;;7.72;;
45694;SDS011;31408;45.468;9.124;2023-02-03T09:06:28;20.00;;;9.23;;
45694;SDS011;31408;45.468;9.124;2023-02-03T09:08:55;21.92;;;8.88;;
45694;SDS011;31408;45.468;9.124;2023-02-03T09:11:21;19.10;;;8.82;;
45694;SDS011;31408;45.468;9.124;2023-02-03T09:13:47;23.13;;;8.88;;
45694;SDS011;31408;45.468;9.124;2023-02-03T09:16:13;21.90;;;9.63;;
45694;SDS011;31408;45.468;9.124;2023-02-03T09:18:41;20.83;;;9.55;;
45694;SDS011;31408;45.468;9.124;2023-02-03T09:21:07;18.73;;;8.50;;
45694;SDS011;31408;45.468;9.124;2023-02-03T09:23:35;19.77;;;8.55;;
45694;SDS011;31408;45.468;9.124;2023-02-03T09:26:02;21.45;;;9.57;;
45694;SDS011;31408;45.468;9.124;2023-02-03T09:28:28;24.23;;;9.43;;
45694;SDS011;31408;45.468;9.124;2023-02-03T09:30:58;23.10;;;9.18;;
45694;SDS011;31408;45.468;9.124;2023-02-03T09:33:27;19.15;;;9.48;;
45694;SDS011;31408;45.468;9.124;2023-02-03T09:35:53;23.52;;;9.80;;
45694;SDS011;31408;45.468;9.124;2023-02-03T09:38:20;25.13;;;9.95;;
45694;SDS011;31408;45.468;9.124;2023-02-03T09:43:50;24.27;;;10.13;;
45694;SDS011;31408;45.468;9.124;2023-02-03T09:46:29;25.25;;;10.82;;
45694;SDS011;31408;45.468;9.124;2023-02-03T09:49:26;23.95;;;9.77;;
45694;SDS011;31408;45.468;9.124;2023-02-03T09:52:04;29.20;;;9.50;;
45694;SDS011;31408;45.468;9.124;2023-02-03T09:54:42;19.17;;;7.95;;
45694;SDS011;31408;45.468;9.124;2023-02-03T09:57:20;19.35;;;9.32;;
45694;SDS011;31408;45.468;9.124;2023-02-03T09:59:48;13.57;;;7.72;;
45694;SDS011;31408;45.468;9.124;2023-02-03T10:05:24;17.65;;;8.32;;
45694;SDS011;31408;45.468;9.124;2023-02-03T10:11:10;14.10;;;6.38;;
45694;SDS011;31408;45.468;9.124;2023-02-03T10:18:53;12.77;;;6.03;;
45694;SDS011;31408;45.468;9.124;2023-02-03T10:23:59;10.98;;;5.85;;
45694;SDS011;31408;45.468;9.124;2023-02-03T10:26:25;10.15;;;5.78;;
45694;SDS011;31408;45.468;9.124;2023-02-03T10:28:56;14.45;;;6.20;;
45694;SDS011;31408;45.468;9.124;2023-02-03T10:31:24;14.48;;;6.05;;
45694;SDS011;31408;45.468;9.124;2023-02-03T10:34:03;12.77;;;6.25;;
45694;SDS011;31408;45.468;9.124;2023-02-03T10:36:38;15.75;;;6.95;;
45694;SDS011;31408;45.468;9.124;2023-02-03T10:42:14;13.27;;;7.13;;
45694;SDS011;31408;45.468;9.124;2023-02-03T10:50:00;17.98;;;7.60;;
45694;SDS011;31408;45.468;9.124;2023-02-03T10:52:35;16.85;;;7.43;;
45694;SDS011;31408;45.468;9.124;2023-02-03T10:55:07;17.45;;;7.90;;
45694;SDS011;31408;45.468;9.124;2023-02-03T10:57:49;17.77;;;8.75;;
45694;SDS011;31408;45.468;9.124;2023-02-03T11:02:53;16.58;;;7.60;;
45694;SDS011;31408;45.468;9.124;2023-02-03T11:05:20;16.00;;;7.78;;
45694;SDS011;31408;45.468;9.124;2023-02-03T11:07:49;18.10;;;7.63;;
45694;SDS011;31408;45.468;9.124;2023-02-03T11:13:14;18.40;;;7.50;;
45694;SDS011;31408;45.468;9.124;2023-02-03T11:21:12;16.88;;;7.32;;
45694;SDS011;31408;45.468;9.124;2023-02-03T11:23:51;15.90;;;6.55;;
45694;SDS011;31408;45.468;9.124;2023-02-03T11:26:53;14.77;;;6.80;;
45694;SDS011;31408;45.468;9.124;2023-02-03T11:29:37;15.15;;;6.68;;
45694;SDS011;31408;45.468;9.124;2023-02-03T11:32:50;15.13;;;7.63;;
45694;SDS011;31408;45.468;9.124;2023-02-03T11:34:59;15.30;;;7.07;;
45694;SDS011;31408;45.468;9.124;2023-02-03T11:42:31;19.25;;;8.20;;
45694;SDS011;31408;45.468;9.124;2023-02-03T11:45:16;20.65;;;8.73;;
45694;SDS011;31408;45.468;9.124;2023-02-03T12:12:24;20.90;;;8.82;;
45694;SDS011;31408;45.468;9.124;2023-02-03T12:20:59;19.70;;;8.43;;
45694;SDS011;31408;45.468;9.124;2023-02-03T12:23:53;19.58;;;9.52;;
45694;SDS011;31408;45.468;9.124;2023-02-03T12:26:34;22.80;;;9.90;;
45694;SDS011;31408;45.468;9.124;2023-02-03T12:29:21;22.38;;;9.65;;
45694;SDS011;31408;45.468;9.124;2023-02-03T12:32:08;23.63;;;10.93;;
45694;SDS011;31408;45.468;9.124;2023-02-03T12:34:50;24.27;;;9.93;;
45694;SDS011;31408;45.468;9.124;2023-02-03T12:37:33;22.02;;;9.32;;
45694;SDS011;31408;45.468;9.124;2023-02-03T12:42:58;19.85;;;8.18;;
45694;SDS011;31408;45.468;9.124;2023-02-03T12:45:51;17.90;;;8.43;;
45694;SDS011;31408;45.468;9.124;2023-02-03T12:48:22;19.73;;;8.43;;
45694;SDS011;31408;45.468;9.124;2023-02-03T12:51:05;18.48;;;7.93;;
45694;SDS011;31408;45.468;9.124;2023-02-03T12:53:35;19.48;;;8.07;;
45694;SDS011;31408;45.468;9.124;2023-02-03T12:56:09;17.42;;;7.68;;
45694;SDS011;31408;45.468;9.124;2023-02-03T13:01:05;21.05;;;8.05;;
45694;SDS011;31408;45.468;9.124;2023-02-03T13:06:35;17.58;;;7.25;;
45694;SDS011;31408;45.468;9.124;2023-02-03T13:09:31;17.52;;;7.72;;
45694;SDS011;31408;45.468;9.124;2023-02-03T13:12:03;17.38;;;7.55;;
45694;SDS011;31408;45.468;9.124;2023-02-03T13:14:37;23.73;;;8.35;;
45694;SDS011;31408;45.468;9.124;2023-02-03T13:19:39;18.02;;;7.53;;
45694;SDS011;31408;45.468;9.124;2023-02-03T13:22:11;14.77;;;6.50;;
45694;SDS011;31408;45.468;9.124;2023-02-03T13:24:39;17.17;;;7.22;;
45694;SDS011;31408;45.468;9.124;2023-02-03T13:42:17;18.25;;;6.80;;
45694;SDS011;31408;45.468;9.124;2023-02-03T13:44:40;14.65;;;6.68;;
45694;SDS011;31408;45.468;9.124;2023-02-03T13:47:12;15.77;;;6.43;;
45694;SDS011;31408;45.468;9.124;2023-02-03T13:49:44;14.02;;;5.57;;
45694;SDS011;31408;45.468;9.124;2023-02-03T13:52:22;12.77;;;5.28;;
45694;SDS011;31408;45.468;9.124;2023-02-03T13:54:49;9.48;;;4.90;;
45694;SDS011;31408;45.468;9.124;2023-02-03T13:57:36;10.57;;;4.57;;
45694;SDS011;31408;45.468;9.124;2023-02-03T14:00:03;11.75;;;5.32;;
45694;SDS011;31408;45.468;9.124;2023-02-03T14:02:42;17.35;;;4.75;;
45694;SDS011;31408;45.468;9.124;2023-02-03T14:05:41;13.63;;;4.70;;
45694;SDS011;31408;45.468;9.124;2023-02-03T14:16:42;7.82;;;4.28;;
45694;SDS011;31408;45.468;9.124;2023-02-03T14:21:55;10.55;;;4.47;;
45694;SDS011;31408;45.468;9.124;2023-02-03T14:24:28;8.45;;;3.55;;
45694;SDS011;31408;45.468;9.124;2023-02-03T14:26:55;11.48;;;3.88;;
45694;SDS011;31408;45.468;9.124;2023-02-03T14:29:31;11.75;;;4.50;;
45694;SDS011;31408;45.468;9.124;2023-02-03T14:34:38;10.68;;;4.20;;
45694;SDS011;31408;45.468;9.124;2023-02-03T14:49:14;7.80;;;3.60;;
45694;SDS011;31408;45.468;9.124;2023-02-03T14:55:02;7.15;;;3.35;;
45694;SDS011;31408;45.468;9.124;2023-02-03T14:57:53;7.40;;;3.65;;
45694;SDS011;31408;45.468;9.124;2023-02-03T15:00:26;9.30;;;3.70;;
45694;SDS011;31408;45.468;9.124;2023-02-03T15:14:44;12.30;;;3.60;;
45694;SDS011;31408;45.468;9.124;2023-02-03T15:16:53;7.68;;;3.45;;
45694;SDS011;31408;45.468;9.124;2023-02-03T15:19:21;15.00;;;4.53;;
45694;SDS011;31408;45.468;9.124;2023-02-03T15:21:48;7.72;;;3.17;;
45694;SDS011;31408;45.468;9.124;2023-02-03T15:24:15;5.57;;;3.30;;
45694;SDS011;31408;45.468;9.124;2023-02-03T15:26:48;9.48;;;2.78;;
45694;SDS011;31408;45.468;9.124;2023-02-03T15:29:30;11.15;;;3.70;;
45694;SDS011;31408;45.468;9.124;2023-02-03T15:32:14;5.90;;;3.40;;
45694;SDS011;31408;45.468;9.124;2023-02-03T15:34:47;9.52;;;3.60;;
45694;SDS011;31408;45.468;9.124;2023-02-03T15:37:22;8.40;;;3.60;;
45694;SDS011;31408;45.468;9.124;2023-02-03T15:43:12;12.38;;;4.30;;
45694;SDS011;31408;45.468;9.124;2023-02-03T15:45:36;9.18;;;4.20;;
45694;SDS011;31408;45.468;9.124;2023-02-03T15:48:43;9.00;;;3.25;;
45694;SDS011;31408;45.468;9.124;2023-02-03T15:51:21;10.07;;;4.00;;
45694;SDS011;31408;45.468;9.124;2023-02-03T15:54:06;10.85;;;3.42;;
45694;SDS011;31408;45.468;9.124;2023-02-03T15:57:07;8.73;;;4.05;;
45694;SDS011;31408;45.468;9.124;2023-02-03T15:59:39;13.85;;;4.28;;
45694;SDS011;31408;45.468;9.124;2023-02-03T16:02:15;6.80;;;3.53;;
45694;SDS011;31408;45.468;9.124;2023-02-03T16:04:46;8.02;;;3.22;;
45694;SDS011;31408;45.468;9.124;2023-02-03T16:07:16;9.00;;;4.53;;
45694;SDS011;31408;45.468;9.124;2023-02-03T16:09:46;15.48;;;5.72;;
45694;SDS011;31408;45.468;9.124;2023-02-03T16:12:17;10.82;;;5.00;;
45694;SDS011;31408;45.468;9.124;2023-02-03T16:14:47;14.40;;;5.13;;
45694;SDS011;31408;45.468;9.124;2023-02-03T16:17:24;17.13;;;5.70;;
45694;SDS011;31408;45.468;9.124;2023-02-03T16:20:03;12.63;;;5.28;;
45694;SDS011;31408;45.468;9.124;2023-02-03T16:22:36;13.70;;;6.03;;
45694;SDS011;31408;45.468;9.124;2023-02-03T16:25:23;15.70;;;6.35;;
45694;SDS011;31408;45.468;9.124;2023-02-03T16:31:07;16.27;;;5.47;;
45694;SDS011;31408;45.468;9.124;2023-02-03T16:33:54;16.60;;;5.78;;
45694;SDS011;31408;45.468;9.124;2023-02-03T16:36:39;12.63;;;6.47;;
45694;SDS011;31408;45.468;9.124;2023-02-03T16:39:25;18.20;;;6.07;;
45694;SDS011;31408;45.468;9.124;2023-02-03T16:42:15;22.05;;;6.60;;
45694;SDS011;31408;45.468;9.124;2023-02-03T16:45:00;12.68;;;6.60;;
45694;SDS011;31408;45.468;9.124;2023-02-03T16:47:49;15.82;;;6.68;;
45694;SDS011;31408;45.468;9.124;2023-02-03T16:50:33;17.38;;;8.10;;
45694;SDS011;31408;45.468;9.124;2023-02-03T16:53:38;16.95;;;5.55;;
45694;SDS011;31408;45.468;9.124;2023-02-03T16:56:03;15.85;;;7.00;;
45694;SDS011;31408;45.468;9.124;2023-02-03T16:58:29;15.85;;;6.63;;
45694;SDS011;31408;45.468;9.124;2023-02-03T17:00:57;12.73;;;6.03;;
45694;SDS011;31408;45.468;9.124;2023-02-03T17:03:25;18.98;;;7.72;;
45694;SDS011;31408;45.468;9.124;2023-02-03T17:05:51;16.88;;;6.88;;
45694;SDS011;31408;45.468;9.124;2023-02-03T17:08:18;18.55;;;7.85;;
45694;SDS011;31408;45.468;9.124;2023-02-03T17:10:46;16.83;;;6.60;;
45694;SDS011;31408;45.468;9.124;2023-02-03T17:13:15;19.08;;;7.30;;
45694;SDS011;31408;45.468;9.124;2023-02-03T17:15:46;15.52;;;6.60;;
45694;SDS011;31408;45.468;9.124;2023-02-03T17:18:16;17.00;;;7.13;;
45694;SDS011;31408;45.468;9.124;2023-02-03T17:20:42;18.98;;;6.47;;
45694;SDS011;31408;45.468;9.124;2023-02-03T17:23:09;17.42;;;6.88;;
45694;SDS011;31408;45.468;9.124;2023-02-03T17:25:35;21.15;;;8.23;;
45694;SDS011;31408;45.468;9.124;2023-02-03T17:28:04;17.63;;;7.30;;
45694;SDS011;31408;45.468;9.124;2023-02-03T17:30:30;16.85;;;7.07;;
45694;SDS011;31408;45.468;9.124;2023-02-03T17:33:03;18.02;;;7.20;;
45694;SDS011;31408;45.468;9.124;2023-02-03T17:35:39;17.98;;;7.30;;
45694;SDS011;31408;45.468;9.124;2023-02-03T17:38:06;20.77;;;7.10;;
45694;SDS011;31408;45.468;9.124;2023-02-03T17:40:32;17.55;;;7.40;;
45694;SDS011;31408;45.468;9.124;2023-02-03T17:42:57;18.88;;;7.32;;
45694;SDS011;31408;45.468;9.124;2023-02-03T17:45:23;19.30;;;7.35;;
45694;SDS011;31408;45.468;9.124;2023-02-03T17:47:50;18.38;;;6.97;;
45694;SDS011;31408;45.468;9.124;2023-02-03T17:50:15;22.05;;;9.25;;
45694;SDS011;31408;45.468;9.124;2023-02-03T17:52:42;20.80;;;7.47;;
45694;SDS011;31408;45.468;9.124;2023-02-03T17:55:08;21.10;;;7.22;;
45694;SDS011;31408;45.468;9.124;2023-02-03T17:57:37;18.63;;;7.05;;